Time;durP1;ratioP1;P1;durP2;ratioP2;P2;SDS_P1;SDS_P2;PMS_P1;PMS_P2;Temp;Humidity;BMP_temperature;BMP_pressure;BME280_temperature;BME280_humidity;BME280_pressure;Samples;Min_cycle;Max_cycle;Signal;HPM_P1;HPM_P2
2023/08/16 00:00:45;;;;;;;13.30;10.32;;;;;;;20.93;100.00;65186.09;5049956;28;20196;-56
2023/08/16 00:03:11;;;;;;;13.18;11.25;;;;;;;20.79;100.00;65171.16;5049643;28;20198;-52
2023/08/16 00:05:36;;;;;;;11.82;10.63;;;;;;;20.67;100.00;65155.34;5031442;28;20201;-53
2023/08/16 00:08:03;;;;;;;12.38;10.77;;;;;;;20.60;100.00;65147.06;5051820;28;20308;-53
2023/08/16 00:10:29;;;;;;;14.80;11.95;;;;;;;20.71;100.00;65159.75;5053399;28;20262;-52
2023/08/16 00:12:54;;;;;;;14.65;11.65;;;;;;;20.73;100.00;65161.41;5052978;28;20235;-52
2023/08/16 00:15:20;;;;;;;13.85;11.32;;;;;;;20.77;100.00;65165.84;5052642;28;20197;-52
2023/08/16 00:17:47;;;;;;;12.45;10.25;;;;;;;20.81;100.00;65170.25;5034790;28;20581;-53
2023/08/16 00:20:13;;;;;;;12.65;10.52;;;;;;;20.83;100.00;65172.47;5053072;28;20186;-52
2023/08/16 00:22:39;;;;;;;15.32;11.85;;;;;;;20.85;100.00;65174.69;5052951;28;20219;-53
2023/08/16 00:25:04;;;;;;;12.48;10.73;;;;;;;20.85;100.00;65177.25;5034601;28;20296;-53
2023/08/16 00:27:30;;;;;;;12.60;10.93;;;;;;;20.83;100.00;65175.59;5052431;28;20289;-52
2023/08/16 00:29:55;;;;;;;13.23;11.77;;;;;;;20.79;100.00;65170.59;5034873;28;20668;-52
2023/08/16 00:32:20;;;;;;;13.95;11.73;;;;;;;20.78;100.00;65166.94;5053129;28;20216;-52
2023/08/16 00:34:46;;;;;;;12.63;10.90;;;;;;;20.77;100.00;65166.41;5052333;28;20690;-53
2023/08/16 00:37:11;;;;;;;12.52;11.18;;;;;;;20.74;100.00;65165.66;5052682;28;20201;-53
2023/08/16 00:39:40;;;;;;;12.77;11.45;;;;;;;20.68;100.00;65153.34;5052839;28;20591;-53
2023/08/16 00:42:05;;;;;;;12.85;10.50;;;;;;;20.61;100.00;65150.72;5052490;28;20232;-55
2023/08/16 00:44:31;;;;;;;12.77;11.45;;;;;;;20.45;100.00;65133.03;5052499;28;20722;-52
2023/08/16 00:46:57;;;;;;;14.43;11.40;;;;;;;20.29;100.00;65112.78;5034210;28;20220;-52
2023/08/16 00:49:22;;;;;;;14.00;11.15;;;;;;;20.23;100.00;65109.28;5052356;28;20197;-52
2023/08/16 00:51:49;;;;;;;13.95;12.38;;;;;;;20.32;100.00;65116.13;5052378;28;20201;-53
2023/08/16 00:54:14;;;;;;;13.02;11.35;;;;;;;20.37;100.00;65121.63;5052214;28;20205;-53
2023/08/16 00:56:40;;;;;;;14.75;11.93;;;;;;;20.36;100.00;65121.06;5052176;28;20216;-53
2023/08/16 00:59:06;;;;;;;16.33;11.80;;;;;;;20.37;100.00;65124.75;5052211;28;20197;-53
2023/08/16 01:01:31;;;;;;;14.65;12.00;;;;;;;20.36;100.00;65123.63;5052578;28;20250;-53
2023/08/16 01:03:57;;;;;;;13.48;11.98;;;;;;;20.40;100.00;65127.53;5052002;28;20197;-53
2023/08/16 01:06:23;;;;;;;13.85;12.32;;;;;;;20.42;100.00;65132.28;5051667;28;20217;-53
2023/08/16 01:08:50;;;;;;;14.05;11.90;;;;;;;20.31;100.00;65115.00;5052269;28;20213;-53
2023/08/16 01:11:29;;;;;;;17.42;11.63;;;;;;;20.33;100.00;65117.22;5052045;28;20217;-53
2023/08/16 01:14:05;;;;;;;14.68;12.25;;;;;;;20.34;100.00;65118.88;5051946;28;20212;-53
2023/08/16 01:16:33;;;;;;;18.25;13.90;;;;;;;20.31;100.00;65115.56;5051649;28;20209;-53
2023/08/16 01:18:59;;;;;;;15.25;12.93;;;;;;;20.38;100.00;65125.31;5051619;28;20299;-52
2023/08/16 01:21:26;;;;;;;13.73;12.23;;;;;;;20.37;100.00;65124.19;5051012;28;20221;-53
2023/08/16 01:24:11;;;;;;;15.13;13.32;;;;;;;20.21;100.00;65107.06;5033276;28;20209;-53
2023/08/16 01:26:38;;;;;;;17.60;13.57;;;;;;;20.07;100.00;65091.59;5051719;28;20217;-59
2023/08/16 01:29:05;;;;;;;14.93;13.43;;;;;;;19.99;100.00;65085.88;5033773;28;20252;-52
2023/08/16 01:31:34;;;;;;;14.70;13.02;;;;;;;20.02;100.00;65084.06;5051626;28;20209;-52
2023/08/16 01:34:00;;;;;;;14.48;12.60;;;;;;;20.00;100.00;65081.28;5051685;28;20202;-55
2023/08/16 01:36:27;;;;;;;15.52;13.30;;;;;;;19.94;100.00;65075.22;5033369;28;20213;-52
2023/08/16 01:38:55;;;;;;;15.75;13.18;;;;;;;19.94;100.00;65080.34;5051632;28;20207;-52
2023/08/16 01:41:30;;;;;;;13.50;12.20;;;;;;;19.92;100.00;65075.00;5051689;28;20205;-52
2023/08/16 01:43:57;;;;;;;13.65;12.25;;;;;;;19.94;100.00;65075.22;5033429;28;20208;-56
2023/08/16 01:46:24;;;;;;;16.48;12.57;;;;;;;20.00;100.00;65084.41;5051518;28;20622;-53
2023/08/16 01:48:51;;;;;;;17.30;11.98;;;;;;;20.00;100.00;65084.41;5033724;28;20733;-53
2023/08/16 01:51:17;;;;;;;15.60;12.20;;;;;;;20.00;100.00;65086.97;5051712;28;20206;-55
2023/08/16 01:53:42;;;;;;;14.90;12.90;;;;;;;19.97;100.00;65081.09;5033347;28;20778;-53
2023/08/16 01:56:08;;;;;;;16.67;12.38;;;;;;;20.03;100.00;65087.72;5050968;28;20228;-54
2023/08/16 01:58:33;;;;;;;16.88;13.30;;;;;;;20.01;100.00;65082.97;5051407;28;20186;-53
2023/08/16 02:00:59;;;;;;;13.68;11.82;;;;;;;20.05;100.00;65087.38;5051054;28;20719;-57
2023/08/16 02:03:24;;;;;;;13.10;11.48;;;;;;;20.08;100.00;65090.69;5051223;28;20288;-53
2023/08/16 02:05:49;;;;;;;14.35;12.73;;;;;;;20.03;100.00;65085.16;5050996;28;20205;-53
2023/08/16 02:08:15;;;;;;;13.00;11.68;;;;;;;20.02;100.00;65086.06;5051038;28;20339;-54
2023/08/16 02:10:40;;;;;;;14.18;12.38;;;;;;;20.06;100.00;65090.47;5051433;28;20205;-53
2023/08/16 02:13:06;;;;;;;16.60;11.70;;;;;;;20.12;100.00;65094.00;5050814;28;20228;-52
2023/08/16 02:15:32;;;;;;;14.38;12.48;;;;;;;20.09;100.00;65091.78;5050917;28;20209;-54
2023/08/16 02:17:58;;;;;;;15.18;12.48;;;;;;;20.08;100.00;65088.13;5051348;28;20308;-52
2023/08/16 02:20:23;;;;;;;13.95;12.35;;;;;;;20.07;100.00;65089.03;5051230;28;20199;-53
2023/08/16 02:22:49;;;;;;;14.82;12.48;;;;;;;20.14;100.00;65098.78;5051106;28;20600;-52
2023/08/16 02:25:15;;;;;;;14.10;12.68;;;;;;;19.96;100.00;65077.41;5051004;28;20652;-52
2023/08/16 02:27:40;;;;;;;19.88;12.30;;;;;;;19.95;100.00;65076.31;5051146;28;20327;-55
2023/08/16 02:30:07;;;;;;;13.75;12.35;;;;;;;19.83;100.00;65063.06;5050416;28;20208;-53
2023/08/16 02:32:36;;;;;;;16.98;12.63;;;;;;;19.87;100.00;65070.06;5049999;28;20209;-52
2023/08/16 02:35:03;;;;;;;18.15;14.00;;;;;;;19.80;100.00;65064.88;5050615;28;20217;-52
2023/08/16 02:37:29;;;;;;;15.82;13.18;;;;;;;19.71;100.00;65054.94;5050801;28;20503;-57
2023/08/16 02:39:55;;;;;;;15.60;13.55;;;;;;;19.60;100.00;65037.66;5051048;28;20216;-52
2023/08/16 02:42:20;;;;;;;17.55;12.77;;;;;;;19.63;100.00;65043.00;5050561;28;20218;-52
2023/08/16 02:44:47;;;;;;;16.20;12.18;;;;;;;19.51;100.00;65027.75;5032508;28;20239;-52
2023/08/16 02:47:12;;;;;;;14.43;12.68;;;;;;;19.51;100.00;65029.75;5050658;28;20217;-53
2023/08/16 02:49:38;;;;;;;22.17;13.95;;;;;;;19.59;100.00;65036.56;5050978;28;20674;-53
2023/08/16 02:52:04;;;;;;;14.68;12.98;;;;;;;19.64;100.00;65042.09;5016097;28;20700;-53
2023/08/16 02:54:29;;;;;;;19.15;13.40;;;;;;;19.69;100.00;65047.63;5050404;28;20188;-52
2023/08/16 02:56:56;;;;;;;14.88;12.20;;;;;;;19.69;100.00;65052.72;5050332;28;20598;-56
2023/08/16 02:59:21;;;;;;;14.43;12.35;;;;;;;19.66;100.00;65044.28;5050609;28;20229;-52
2023/08/16 03:01:47;;;;;;;14.32;12.85;;;;;;;19.71;100.00;65049.81;5050320;28;20309;-53
2023/08/16 03:04:13;;;;;;;15.40;12.77;;;;;;;19.66;100.00;65046.84;5050123;28;20611;-52
2023/08/16 03:06:39;;;;;;;15.15;12.50;;;;;;;19.68;100.00;65048.50;5050377;28;20241;-52
2023/08/16 03:09:05;;;;;;;14.80;11.90;;;;;;;19.72;100.00;65050.38;5050452;28;20213;-52
2023/08/16 03:11:30;;;;;;;12.40;11.15;;;;;;;19.64;100.00;65044.09;5050253;28;20205;-53
2023/08/16 03:13:55;;;;;;;16.15;12.32;;;;;;;19.71;100.00;65049.28;5050202;28;20197;-52
2023/08/16 03:16:28;;;;;;;14.90;12.18;;;;;;;19.71;100.00;65049.28;5049710;28;20209;-54
2023/08/16 03:18:54;;;;;;;15.00;12.25;;;;;;;19.85;100.00;65062.16;5050745;28;20205;-53
2023/08/16 03:21:22;;;;;;;17.73;13.18;;;;;;;19.90;100.00;65073.34;5032008;28;20209;-56
2023/08/16 03:23:48;;;;;;;18.23;12.93;;;;;;;19.64;100.00;65044.66;5050037;28;20170;-53
2023/08/16 03:26:14;;;;;;;13.98;12.43;;;;;;;19.40;100.00;65018.16;5050073;28;20209;-53
2023/08/16 03:28:39;;;;;;;16.00;12.85;;;;;;;19.39;100.00;65014.50;5049936;28;20288;-52
2023/08/16 03:31:08;;;;;;;14.23;12.70;;;;;;;19.43;100.00;65018.34;5049823;28;20224;-52
2023/08/16 03:33:34;;;;;;;15.35;12.50;;;;;;;19.44;100.00;65020.00;5049818;28;20201;-52
2023/08/16 03:36:00;;;;;;;15.73;12.73;;;;;;;19.45;100.00;65020.56;5049856;28;20217;-53
2023/08/16 03:38:25;;;;;;;14.35;12.85;;;;;;;19.43;100.00;65018.91;5050458;28;20205;-51
2023/08/16 03:40:50;;;;;;;14.68;11.82;;;;;;;19.49;100.00;65027.53;5049733;28;20229;-52
2023/08/16 03:43:16;;;;;;;18.08;13.45;;;;;;;19.50;100.00;65028.63;5052072;28;20237;-52
2023/08/16 03:45:42;;;;;;;15.07;12.40;;;;;;;19.51;100.00;65030.31;5052909;28;20223;-52
2023/08/16 03:48:07;;;;;;;14.88;11.90;;;;;;;19.57;100.00;65033.81;5053748;28;20205;-52
2023/08/16 03:50:33;;;;;;;18.17;13.02;;;;;;;19.50;100.00;65028.63;5053034;28;20649;-54
2023/08/16 03:52:58;;;;;;;15.30;12.45;;;;;;;19.52;100.00;65031.38;5052925;28;20646;-53
2023/08/16 03:55:25;;;;;;;13.93;12.57;;;;;;;19.48;100.00;65024.41;5035528;28;20217;-52
2023/08/16 03:57:51;;;;;;;17.45;12.70;;;;;;;19.49;100.00;65028.09;5053346;28;20683;-53
2023/08/16 04:00:16;;;;;;;14.95;12.88;;;;;;;19.54;100.00;65030.50;5053136;28;20204;-52
2023/08/16 04:02:42;;;;;;;15.88;13.10;;;;;;;19.53;100.00;65029.94;5053207;28;20206;-52
2023/08/16 04:05:09;;;;;;;14.90;11.65;;;;;;;19.63;100.00;65043.00;5052880;28;20676;-52
2023/08/16 04:07:34;;;;;;;15.77;12.57;;;;;;;19.63;100.00;65043.56;5053252;28;20209;-52
2023/08/16 04:10:00;;;;;;;15.38;12.02;;;;;;;19.64;100.00;65044.09;5052949;28;20209;-52
2023/08/16 04:12:25;;;;;;;14.07;11.80;;;;;;;19.59;100.00;65036.03;5052724;28;20687;-53
2023/08/16 04:14:51;;;;;;;16.63;13.48;;;;;;;19.51;100.00;65027.75;5052887;28;20205;-52
2023/08/16 04:17:16;;;;;;;14.98;13.15;;;;;;;19.44;100.00;65022.00;5053201;28;20684;-52
2023/08/16 04:19:41;;;;;;;15.27;12.93;;;;;;;19.51;100.00;65030.31;5053481;28;20292;-54
2023/08/16 04:22:07;;;;;;;13.35;12.05;;;;;;;19.59;100.00;65036.56;5052839;28;20205;-53
2023/08/16 04:24:32;;;;;;;15.93;13.45;;;;;;;19.45;100.00;65018.56;5034820;28;20169;-53
2023/08/16 04:26:58;;;;;;;24.08;13.32;;;;;;;19.36;100.00;65013.72;5052753;28;20205;-51
2023/08/16 04:29:24;;;;;;;14.23;12.75;;;;;;;19.37;100.00;65012.28;5052797;28;20202;-57
2023/08/16 04:31:50;;;;;;;14.70;12.60;;;;;;;19.54;100.00;65031.03;5052361;28;20215;-53
2023/08/16 04:34:16;;;;;;;17.65;13.27;;;;;;;19.50;100.00;65026.63;5052597;28;20190;-53
2023/08/16 04:36:41;;;;;;;14.35;12.55;;;;;;;19.39;100.00;65016.50;5052224;28;20245;-52
2023/08/16 04:39:08;;;;;;;17.75;14.48;;;;;;;19.60;100.00;65040.22;5052403;28;20595;-52
2023/08/16 04:41:34;;;;;;;17.65;13.43;;;;;;;19.26;100.00;65002.66;5052409;28;20719;-53
2023/08/16 04:44:00;;;;;;;14.93;13.27;;;;;;;19.20;100.00;64993.50;5052414;28;20190;-53
2023/08/16 04:46:25;;;;;;;18.80;13.25;;;;;;;19.16;100.00;64994.19;5052363;28;20201;-53
2023/08/16 04:48:51;;;;;;;21.10;14.60;;;;;;;19.11;100.00;64988.66;5052820;28;20644;-58
2023/08/16 04:51:17;;;;;;;19.52;13.57;;;;;;;19.17;100.00;64992.72;5052119;28;20221;-52
2023/08/16 04:53:44;;;;;;;20.45;13.48;;;;;;;19.25;100.00;64999.00;5051203;28;20231;-53
2023/08/16 04:56:09;;;;;;;23.45;14.18;;;;;;;19.24;100.00;64998.47;5052004;28;20221;-52
2023/08/16 04:58:34;;;;;;;25.77;14.98;;;;;;;19.35;100.00;65015.19;5052314;28;20209;-53
2023/08/16 05:01:00;;;;;;;21.38;15.90;;;;;;;19.38;100.00;65015.94;5052152;28;20205;-52
2023/08/16 05:03:25;;;;;;;23.70;15.93;;;;;;;19.47;100.00;65022.78;5034498;28;20209;-52
2023/08/16 05:05:59;;;;;;;24.13;16.42;;;;;;;19.50;100.00;65026.63;5052470;28;20189;-54
2023/08/16 05:08:25;;;;;;;19.52;14.40;;;;;;;19.73;100.00;65051.47;5034972;28;20265;-52
2023/08/16 05:10:50;;;;;;;16.15;13.80;;;;;;;19.80;100.00;65064.88;5051925;28;20205;-52
2023/08/16 05:13:17;;;;;;;17.08;13.05;;;;;;;19.83;100.00;65065.63;5034136;28;20580;-52
2023/08/16 05:15:44;;;;;;;15.10;12.68;;;;;;;19.94;100.00;65077.78;5051982;28;20217;-52
2023/08/16 05:18:09;;;;;;;20.08;12.48;;;;;;;19.82;100.00;65061.41;5051965;28;20559;-54
2023/08/16 05:20:35;;;;;;;17.63;12.23;;;;;;;19.70;100.00;65051.28;5051752;28;20198;-52
2023/08/16 05:23:01;;;;;;;19.85;13.13;;;;;;;19.64;100.00;65042.09;5034113;28;20287;-52
2023/08/16 05:25:27;;;;;;;18.33;13.23;;;;;;;19.69;100.00;65049.63;5051901;28;20225;-55
2023/08/16 05:27:56;;;;;;;17.02;12.57;;;;;;;19.73;100.00;65054.03;5052063;28;20220;-52
2023/08/16 05:30:21;;;;;;;18.55;12.93;;;;;;;19.74;100.00;65055.69;5051854;28;20259;-52
2023/08/16 05:32:47;;;;;;;20.95;14.75;;;;;;;19.73;100.00;65054.59;5051861;28;20635;-53
2023/08/16 05:35:13;;;;;;;18.80;14.32;;;;;;;19.79;100.00;65061.22;5052021;28;20209;-53
2023/08/16 05:37:39;;;;;;;23.13;14.27;;;;;;;19.81;100.00;65062.88;5051329;28;20205;-53
2023/08/16 05:40:05;;;;;;;16.17;13.07;;;;;;;19.94;100.00;65075.22;5049711;28;20209;-55
2023/08/16 05:42:31;;;;;;;21.98;13.48;;;;;;;20.05;100.00;65086.81;5031439;28;20691;-52
2023/08/16 05:44:58;;;;;;;16.90;12.60;;;;;;;20.19;100.00;65101.72;5051961;28;20192;-57
2023/08/16 05:47:24;;;;;;;16.17;13.30;;;;;;;20.35;100.00;65122.53;5052060;28;20209;-52
2023/08/16 05:49:49;;;;;;;14.48;11.40;;;;;;;20.44;100.00;65132.47;5033446;28;20202;-52
2023/08/16 05:52:15;;;;;;;15.75;11.90;;;;;;;20.34;100.00;65118.34;5051327;28;20602;-52
2023/08/16 05:54:41;;;;;;;21.58;11.77;;;;;;;20.34;100.00;65123.44;5051569;28;20280;-52
2023/08/16 05:57:07;;;;;;;19.13;11.50;;;;;;;20.41;100.00;65128.63;5051364;28;20237;-52
2023/08/16 05:59:33;;;;;;;13.60;10.95;;;;;;;20.45;100.00;65127.91;5051398;28;20205;-52
2023/08/16 06:01:58;;;;;;;15.07;10.82;;;;;;;20.56;100.00;65142.63;5033147;28;20209;-55
2023/08/16 06:04:25;;;;;;;15.50;11.20;;;;;;;20.60;100.00;65147.63;5051359;28;20204;-56
2023/08/16 06:06:51;;;;;;;12.18;10.10;;;;;;;20.65;100.00;65153.13;5050702;28;20216;-53
2023/08/16 06:09:16;;;;;;;13.07;10.70;;;;;;;20.70;100.00;65161.22;5050932;28;20269;-56
2023/08/16 06:11:42;;;;;;;15.18;10.88;;;;;;;20.91;100.00;65181.31;5051219;28;20675;-52
2023/08/16 06:14:07;;;;;;;17.75;11.50;;;;;;;21.00;100.00;65190.72;5033331;28;20197;-52
2023/08/16 06:16:33;;;;;;;17.67;12.25;;;;;;;20.98;100.00;65191.63;5050973;28;20209;-53
2023/08/16 06:18:59;;;;;;;15.38;11.43;;;;;;;21.02;100.00;65196.06;5050891;28;20212;-53
2023/08/16 06:21:26;;;;;;;14.88;11.00;;;;;;;21.21;100.00;65213.97;5032582;28;20711;-51
2023/08/16 06:23:53;;;;;;;17.23;11.52;;;;;;;21.24;100.00;65220.41;5032927;28;20190;-55
2023/08/16 06:26:19;;;;;;;14.05;11.18;;;;;;;21.12;100.00;65207.13;5033294;28;20229;-52
2023/08/16 06:28:46;;;;;;;14.50;12.13;;;;;;;21.01;100.00;65194.94;5050793;28;20734;-52
2023/08/16 06:31:11;;;;;;;17.73;11.60;;;;;;;21.06;100.00;65195.38;5050627;28;20300;-53
2023/08/16 06:33:37;;;;;;;14.88;11.85;;;;;;;21.07;100.00;65199.03;5050925;28;20332;-53
2023/08/16 06:36:03;;;;;;;19.15;10.98;;;;;;;21.14;100.00;65206.78;5050623;28;20750;-53
2023/08/16 06:38:28;;;;;;;16.25;11.18;;;;;;;21.38;100.00;65230.75;5033142;28;20199;-53
2023/08/16 06:40:54;;;;;;;14.77;11.40;;;;;;;21.44;100.00;65239.38;5050479;28;20575;-53
2023/08/16 06:43:19;;;;;;;17.73;10.40;;;;;;;21.32;100.00;65226.69;5050676;28;20197;-53
2023/08/16 06:45:45;;;;;;;14.23;10.35;;;;;;;21.28;100.00;65222.25;5050490;28;20209;-52
2023/08/16 06:48:11;;;;;;;17.88;10.18;;;;;;;21.41;100.00;65236.63;5050612;28;20228;-51
2023/08/16 06:50:39;;;;;;;14.15;11.63;;;;;;;21.57;100.00;65254.31;5050413;28;20205;-58
2023/08/16 06:53:05;;;;;;;12.77;9.63;;;;;;;21.64;100.00;65262.06;5032752;28;20213;-52
2023/08/16 06:55:33;;;;;;;12.95;10.57;;;;;;;21.56;100.00;65252.66;5050733;28;20223;-52
2023/08/16 06:58:01;;;;;;;15.80;10.40;;;;;;;21.53;100.00;65246.78;5050861;28;20223;-51
2023/08/16 07:00:26;;;;;;;16.92;11.05;;;;;;;21.52;100.00;65248.78;5050334;28;20747;-53
2023/08/16 07:02:53;;;;;;;17.02;13.60;;;;;;;21.88;98.56;65287.53;5032605;28;20220;-51
2023/08/16 07:05:18;;;;;;;17.23;11.57;;;;;;;21.91;99.19;65291.41;5050903;28;20201;-52
2023/08/16 07:07:44;;;;;;;13.75;10.43;;;;;;;21.90;98.98;65289.75;5015947;28;20709;-53
2023/08/16 07:10:10;;;;;;;12.80;9.90;;;;;;;21.89;98.98;65291.78;5050197;28;20205;-53
2023/08/16 07:12:35;;;;;;;12.45;9.63;;;;;;;22.33;100.00;65340.47;5050207;28;20323;-52
2023/08/16 07:15:01;;;;;;;16.00;11.20;;;;;;;22.99;100.00;65413.00;5050648;28;20228;-56
2023/08/16 07:17:26;;;;;;;14.25;10.35;;;;;;;23.43;100.00;65456.09;5051153;28;20292;-52
2023/08/16 07:19:52;;;;;;;15.23;10.35;;;;;;;23.37;91.96;65454.59;5053705;28;20189;-53
2023/08/16 07:22:20;;;;;;;10.85;9.65;;;;;;;23.43;92.89;65458.66;5064923;22;20233;-53
2023/08/16 07:24:45;;;;;;;11.13;9.20;;;;;;;23.57;95.37;65471.59;5053823;28;20197;-53
2023/08/16 07:27:11;;;;;;;13.57;10.00;;;;;;;23.78;93.73;65496.88;5054059;28;20213;-53
2023/08/16 07:29:36;;;;;;;12.85;9.60;;;;;;;23.91;94.56;65508.72;5036193;28;20209;-53
2023/08/16 07:32:01;;;;;;;13.30;9.93;;;;;;;23.99;90.02;65520.16;5054060;28;20228;-52
2023/08/16 07:34:27;;;;;;;16.10;9.07;;;;;;;24.12;86.20;65535.16;5053678;28;20679;-52
2023/08/16 07:36:53;;;;;;;13.80;9.52;;;;;;;24.08;85.63;65530.72;5035624;28;20583;-53
2023/08/16 07:39:19;;;;;;;15.18;8.95;;;;;;;24.31;90.94;65553.09;5053372;28;20355;-53
2023/08/16 07:41:44;;;;;;;12.57;9.00;;;;;;;24.34;88.18;65558.44;5053401;28;20588;-53
2023/08/16 07:44:19;;;;;;;9.88;7.80;;;;;;;24.30;83.83;65551.97;5053614;28;20185;-53
2023/08/16 07:46:44;;;;;;;10.80;8.60;;;;;;;24.38;84.76;65563.41;5053374;28;20225;-53
2023/08/16 07:49:10;;;;;;;13.82;8.27;;;;;;;24.37;83.85;65561.75;5053922;28;20275;-54
2023/08/16 07:51:36;;;;;;;14.55;8.50;;;;;;;24.57;83.78;65584.50;5018832;28;20217;-54
2023/08/16 07:54:02;;;;;;;9.35;8.45;;;;;;;24.61;82.80;65586.34;5053459;28;20253;-54
2023/08/16 07:56:28;;;;;;;10.18;7.93;;;;;;;24.78;82.09;65607.81;5035168;28;20229;-53
2023/08/16 07:58:53;;;;;;;10.73;8.82;;;;;;;24.82;84.09;65609.69;5053330;28;20624;-53
2023/08/16 08:01:19;;;;;;;8.60;7.70;;;;;;;25.04;83.01;65636.09;5053207;28;20346;-52
2023/08/16 08:03:46;;;;;;;12.20;10.93;;;;;;;25.24;77.42;65657.75;5053562;28;20228;-54
2023/08/16 08:06:12;;;;;;;11.55;7.97;;;;;;;25.22;79.50;65652.94;5053077;28;20224;-53
2023/08/16 08:08:37;;;;;;;7.80;7.10;;;;;;;25.03;79.28;65631.88;5052851;28;20189;-57
2023/08/16 08:11:06;;;;;;;12.40;7.57;;;;;;;25.04;76.86;65636.09;5053119;28;20220;-53
2023/08/16 08:13:32;;;;;;;9.88;8.30;;;;;;;24.98;80.79;65629.44;5052830;28;20205;-52
2023/08/16 08:15:58;;;;;;;10.80;8.27;;;;;;;25.22;80.97;65656.09;5052773;28;20691;-53
2023/08/16 08:18:23;;;;;;;9.07;7.57;;;;;;;25.30;78.19;65664.41;5053236;28;20205;-54
2023/08/16 08:20:49;;;;;;;13.15;8.02;;;;;;;25.46;75.26;65679.59;5052575;28;20193;-52
2023/08/16 08:23:15;;;;;;;9.23;8.00;;;;;;;25.31;77.48;65663.47;5052786;28;20201;-54
2023/08/16 08:25:42;;;;;;;8.98;7.65;;;;;;;25.24;77.44;65657.75;5034772;28;20250;-53
2023/08/16 08:28:08;;;;;;;14.88;8.35;;;;;;;25.43;77.61;65676.28;5052594;28;20209;-53
2023/08/16 08:30:34;;;;;;;9.02;7.13;;;;;;;25.45;73.90;65681.09;5053068;28;20196;-53
2023/08/16 08:33:00;;;;;;;11.25;7.78;;;;;;;25.41;79.34;65674.59;5034711;28;20584;-55
2023/08/16 08:35:26;;;;;;;12.07;9.23;;;;;;;25.35;78.04;65667.91;5052289;28;20691;-53
2023/08/16 08:37:53;;;;;;;11.68;8.68;;;;;;;25.24;77.26;65657.75;5052872;28;20214;-52
2023/08/16 08:40:19;;;;;;;9.68;8.48;;;;;;;25.19;76.38;65652.19;5052812;28;20197;-52
2023/08/16 08:42:49;;;;;;;10.90;7.57;;;;;;;25.04;75.01;65635.53;5034494;28;20700;-52
2023/08/16 08:45:15;;;;;;;11.32;8.50;;;;;;;25.27;76.87;65655.91;5035034;28;20201;-58
2023/08/16 08:47:43;;;;;;;9.63;7.35;;;;;;;25.50;72.57;65686.63;5052545;28;20256;-53
2023/08/16 08:50:09;;;;;;;8.90;7.25;;;;;;;25.46;73.66;65682.19;5052932;28;20304;-53
2023/08/16 08:52:35;;;;;;;14.88;8.68;;;;;;;25.43;74.44;65678.84;5034512;28;20735;-54
2023/08/16 08:55:03;;;;;;;11.77;7.03;;;;;;;25.47;74.98;65678.69;5034382;28;20221;-53
2023/08/16 08:57:30;;;;;;;9.60;8.30;;;;;;;25.62;75.48;65699.94;5052590;28;20237;-54
2023/08/16 08:59:58;;;;;;;9.45;7.88;;;;;;;25.78;71.48;65713.09;5052828;28;20217;-53
2023/08/16 09:02:25;;;;;;;9.52;7.93;;;;;;;25.84;73.77;65723.81;5034256;28;20220;-53
2023/08/16 09:04:55;;;;;;;8.73;7.57;;;;;;;25.89;74.40;65729.38;5052438;28;20288;-52
2023/08/16 09:07:22;;;;;;;12.73;8.93;;;;;;;25.91;73.06;65729.56;5052581;28;20305;-54
2023/08/16 09:09:49;;;;;;;13.50;9.00;;;;;;;26.06;70.79;65748.25;5052267;28;20197;-53
2023/08/16 09:12:14;;;;;;;12.98;8.77;;;;;;;26.00;73.78;65742.13;5033928;28;20769;-53
2023/08/16 09:14:40;;;;;;;13.75;8.07;;;;;;;26.14;71.08;65757.16;5051945;28;20201;-54
2023/08/16 09:17:07;;;;;;;10.63;8.05;;;;;;;26.23;74.54;65767.16;5033761;28;20277;-53
2023/08/16 09:19:32;;;;;;;11.55;8.18;;;;;;;26.24;72.48;65766.22;5052190;28;20194;-53
2023/08/16 09:21:58;;;;;;;14.13;8.93;;;;;;;26.36;73.20;65779.00;5051795;28;20213;-53
2023/08/16 09:24:24;;;;;;;11.15;8.07;;;;;;;26.54;71.55;65796.97;5051995;28;20289;-53
2023/08/16 09:26:49;;;;;;;16.35;10.80;;;;;;;26.10;71.11;65752.72;5052180;28;20250;-53
2023/08/16 09:29:17;;;;;;;14.93;10.52;;;;;;;25.87;70.15;65725.13;5051889;28;20659;-53
2023/08/16 09:31:46;;;;;;;12.70;8.30;;;;;;;25.78;71.31;65717.69;5033803;28;20228;-53
2023/08/16 09:34:15;;;;;;;9.43;7.38;;;;;;;25.89;73.62;65727.34;5051583;28;20671;-53
2023/08/16 09:36:43;;;;;;;13.77;8.05;;;;;;;26.15;69.16;65758.81;5051384;28;20225;-53
2023/08/16 09:39:09;;;;;;;8.45;7.63;;;;;;;26.40;68.25;65783.47;5051574;28;20741;-53
2023/08/16 09:41:38;;;;;;;10.43;7.78;;;;;;;26.40;68.03;65788.63;5050866;28;20290;-53
2023/08/16 09:44:07;;;;;;;10.60;7.93;;;;;;;26.43;67.97;65789.94;5033529;28;20201;-53
2023/08/16 09:46:34;;;;;;;13.80;7.75;;;;;;;26.51;70.77;65796.22;5051227;28;20276;-54
2023/08/16 09:49:07;;;;;;;13.25;9.43;;;;;;;26.51;69.80;65795.66;5051858;28;20204;-52
2023/08/16 09:51:35;;;;;;;10.85;8.05;;;;;;;26.91;68.86;65839.56;5051838;28;20212;-53
2023/08/16 09:54:03;;;;;;;8.95;7.65;;;;;;;27.37;65.19;65891.28;5051233;28;20209;-56
2023/08/16 09:56:32;;;;;;;9.60;7.38;;;;;;;27.71;63.74;65931.16;5051140;28;20224;-53
2023/08/16 09:59:00;;;;;;;10.00;8.35;;;;;;;28.04;63.14;65965.25;5051472;28;20182;-56
2023/08/16 10:01:26;;;;;;;9.60;8.18;;;;;;;28.09;62.89;65970.84;5033225;28;20213;-54
2023/08/16 10:03:54;;;;;;;11.90;7.97;;;;;;;28.41;60.50;66005.31;5051155;28;20596;-53
2023/08/16 10:06:23;;;;;;;10.48;7.63;;;;;;;28.71;58.82;66039.28;5051194;28;20585;-51
2023/08/16 10:08:52;;;;;;;10.07;7.20;;;;;;;28.67;58.00;66034.84;5051527;28;20204;-57
2023/08/16 10:11:18;;;;;;;12.65;7.50;;;;;;;28.68;58.86;66032.81;5051138;28;20209;-54
2023/08/16 10:13:45;;;;;;;12.57;7.70;;;;;;;28.92;59.79;66062.13;5033320;28;20201;-51
2023/08/16 10:16:14;;;;;;;11.10;7.97;;;;;;;29.36;57.63;66111.13;5051028;28;20296;-51
2023/08/16 10:18:45;;;;;;;12.25;6.93;;;;;;;29.63;56.37;66140.66;5051141;28;20240;-52
2023/08/16 10:21:18;;;;;;;12.10;8.70;;;;;;;29.65;54.59;66143.44;5058462;22;20205;-52
2023/08/16 10:23:44;;;;;;;11.02;7.75;;;;;;;29.96;55.18;66174.28;5049504;28;20243;-52
2023/08/16 10:26:15;;;;;;;10.88;8.18;;;;;;;30.19;53.71;66205.09;5031532;28;20217;-52
2023/08/16 10:28:55;;;;;;;11.00;6.93;;;;;;;30.47;53.59;66233.72;5050997;28;20197;-52
2023/08/16 10:31:25;;;;;;;10.57;6.80;;;;;;;30.64;53.85;66253.22;5050836;28;20215;-52
2023/08/16 10:33:54;;;;;;;9.25;7.65;;;;;;;30.77;50.08;66267.16;5033409;28;20221;-55
2023/08/16 10:36:21;;;;;;;10.45;7.00;;;;;;;30.68;51.13;66257.69;5033026;28;20248;-53
2023/08/16 10:38:54;;;;;;;9.48;7.80;;;;;;;30.16;50.13;66197.09;5051266;28;20209;-52
2023/08/16 10:41:22;;;;;;;13.50;12.10;;;;;;;29.84;51.63;66164.06;5050814;28;20774;-51
2023/08/16 10:43:50;;;;;;;9.00;7.00;;;;;;;30.37;51.44;66222.59;5032548;28;20250;-52
2023/08/16 10:46:29;;;;;;;10.35;8.45;;;;;;;30.40;50.79;66223.88;5050435;28;20209;-52
2023/08/16 10:48:59;;;;;;;7.68;6.85;;;;;;;30.27;49.07;66211.41;5050629;28;20282;-52
2023/08/16 10:51:25;;;;;;;8.77;7.18;;;;;;;30.45;48.85;66232.06;5049613;28;20210;-52
2023/08/16 10:53:51;;;;;;;8.40;7.25;;;;;;;30.66;49.88;66252.31;5050101;28;20203;-51
2023/08/16 10:56:19;;;;;;;11.02;6.95;;;;;;;31.02;49.77;66291.91;5050139;28;20607;-51
2023/08/16 10:58:50;;;;;;;8.05;6.90;;;;;;;31.16;48.49;66308.09;5050855;28;20216;-50
2023/08/16 11:01:17;;;;;;;9.52;6.70;;;;;;;31.48;48.85;66342.66;5050127;28;20229;-52
2023/08/16 11:03:49;;;;;;;8.90;6.78;;;;;;;30.75;48.75;66264.94;5050167;28;20193;-51
2023/08/16 11:06:16;;;;;;;7.57;6.75;;;;;;;31.41;48.99;66335.44;5050069;28;20274;-52
2023/08/16 11:08:43;;;;;;;8.50;6.80;;;;;;;31.52;48.86;66347.69;5050058;28;20559;-51
2023/08/16 11:11:10;;;;;;;7.55;6.68;;;;;;;31.36;49.07;66333.00;5050221;28;20224;-53
2023/08/16 11:13:36;;;;;;;13.70;8.02;;;;;;;30.90;50.47;66281.69;5050302;28;20209;-51